createdAt,value
2022-12-26T00:01:41.201Z,76189.72
2022-12-26T00:11:46.553Z,76191.72
2022-12-26T00:21:53.648Z,76181.63
2022-12-26T00:31:55.842Z,76183.63
2022-12-26T00:42:04.641Z,76167.44
2022-12-26T00:52:06.892Z,76171.50
2022-12-26T01:02:31.318Z,76159.34
2022-12-26T01:12:38.345Z,76147.22
2022-12-26T01:22:42.723Z,76143.16
2022-12-26T01:32:47.232Z,76124.94
2022-12-26T01:42:49.296Z,76131.00
2022-12-26T01:52:58.565Z,76110.78
2022-12-26T02:03:19.221Z,76092.56
2022-12-26T02:13:21.587Z,76094.59
2022-12-26T02:23:45.517Z,76082.44
2022-12-26T02:34:14.175Z,76074.34
2022-12-26T02:44:52.450Z,76066.25
2022-12-26T02:55:30.262Z,76046.00
2022-12-26T03:06:05.269Z,76046.00
2022-12-26T03:16:29.817Z,76027.78
2022-12-26T03:26:42.841Z,76025.75
2022-12-26T03:37:14.887Z,76009.56
2022-12-26T03:47:52.394Z,75997.44
2022-12-26T03:58:24.998Z,75979.22
2022-12-26T04:08:53.086Z,75963.03
2022-12-26T04:19:25.800Z,75969.09
2022-12-26T04:29:46.521Z,75936.72
2022-12-26T04:40:09.152Z,75936.72
2022-12-26T04:50:13.642Z,75920.53
2022-12-26T05:00:18.317Z,75898.25
2022-12-26T05:10:23.319Z,75882.06
2022-12-26T05:20:48.939Z,75876.00
2022-12-26T05:30:58.200Z,75855.75
2022-12-26T05:41:03.432Z,75827.44
2022-12-26T05:51:08.645Z,75847.66
2022-12-26T06:01:19.776Z,75829.44
2022-12-26T06:11:26.752Z,75815.28
2022-12-26T06:21:31.677Z,75827.44
2022-12-26T06:31:36.210Z,75811.22
2022-12-26T06:41:38.333Z,75778.84
2022-12-26T06:51:45.238Z,75750.53
2022-12-26T07:01:47.457Z,75750.53
2022-12-26T07:11:50.907Z,75752.53
2022-12-26T07:21:52.976Z,75724.22
2022-12-26T07:31:55.149Z,75714.09
2022-12-26T07:41:59.663Z,75697.91
2022-12-26T07:52:02.508Z,75699.91
2022-12-26T08:02:10.398Z,75687.78
2022-12-26T08:12:13.823Z,75659.44
2022-12-26T08:22:15.989Z,75653.38
2022-12-26T08:32:18.157Z,75621.00
2022-12-26T08:42:25.516Z,75588.63
2022-12-26T08:52:32.088Z,75564.34
2022-12-26T09:02:37.064Z,75527.91
2022-12-26T09:12:41.577Z,75519.81
2022-12-26T09:22:52.132Z,75483.38
2022-12-26T09:32:56.392Z,75473.25
2022-12-26T09:43:13.102Z,75442.91
2022-12-26T09:53:28.509Z,75432.78
2022-12-26T10:03:30.905Z,75390.28
2022-12-26T10:13:44.482Z,75353.88
2022-12-26T10:23:55.485Z,75319.47
2022-12-26T10:34:14.045Z,75285.06
2022-12-26T10:44:25.568Z,75224.34
2022-12-26T10:54:30.332Z,75175.78
2022-12-26T11:05:10.504Z,75147.47
2022-12-26T11:15:05.989Z,75115.09
2022-12-26T11:25:08.038Z,75086.75
2022-12-26T11:35:24.572Z,75042.25
2022-12-26T11:45:38.531Z,74979.53
2022-12-26T11:55:46.106Z,74912.75
2022-12-26T12:06:00.397Z,74864.19
2022-12-26T12:16:16.442Z,74843.94
2022-12-26T12:26:42.222Z,74823.72
2022-12-26T12:37:03.261Z,74799.44
2022-12-26T12:47:14.832Z,74787.28
2022-12-26T12:57:37.341Z,74791.34
2022-12-26T13:07:53.368Z,74783.25
2022-12-26T13:18:01.131Z,74775.16
2022-12-26T13:28:12.539Z,74767.06
2022-12-26T13:38:22.087Z,74758.97
2022-12-26T13:48:27.501Z,74750.88
2022-12-26T13:58:35.192Z,74746.84
2022-12-26T14:08:37.161Z,74734.69
2022-12-26T14:18:48.110Z,74740.75
2022-12-26T14:29:16.044Z,74738.75
2022-12-26T14:39:18.134Z,74718.50
2022-12-26T14:49:38.593Z,74734.69
2022-12-26T14:59:40.927Z,74738.75
2022-12-26T15:10:06.681Z,74730.66
2022-12-26T15:20:45.271Z,74732.66
2022-12-26T15:31:11.108Z,74724.56
2022-12-26T15:41:19.079Z,74750.88
2022-12-26T15:51:39.231Z,74754.94
2022-12-26T16:01:44.376Z,74773.13
2022-12-26T16:11:58.680Z,74783.25
2022-12-26T16:22:22.876Z,74779.19
2022-12-26T16:32:34.837Z,74787.28
2022-12-26T16:42:36.904Z,74803.47
2022-12-26T16:52:46.411Z,74787.28
2022-12-26T17:02:52.454Z,74795.38
2022-12-26T17:13:05.078Z,74803.47
2022-12-26T17:23:36.111Z,74819.66
2022-12-26T17:33:41.458Z,74819.66
2022-12-26T17:43:52.577Z,74831.81
2022-12-26T17:53:56.953Z,74845.97
2022-12-26T18:04:03.791Z,74850.03
2022-12-26T18:14:13.827Z,74856.09
2022-12-26T18:24:21.252Z,74860.13
2022-12-26T18:34:23.375Z,74854.06
2022-12-26T18:44:28.213Z,74862.16
2022-12-26T18:54:34.283Z,74852.03
2022-12-26T19:04:36.428Z,74858.13
2022-12-26T19:14:41.788Z,74856.09
2022-12-26T19:24:47.297Z,74864.19
2022-12-26T19:34:56.154Z,74880.38
2022-12-26T19:45:01.305Z,74892.50
2022-12-26T19:55:07.410Z,74900.59
2022-12-26T20:05:12.110Z,74912.75
2022-12-26T20:15:20.678Z,74908.69
2022-12-26T20:25:25.048Z,74914.78
2022-12-26T20:35:30.436Z,74914.78
2022-12-26T20:45:37.961Z,74932.97
2022-12-26T20:55:42.539Z,74941.06
2022-12-26T21:05:49.276Z,74949.16
2022-12-26T21:15:53.770Z,74955.25
2022-12-26T21:25:58.693Z,74957.25
2022-12-26T21:36:10.565Z,74963.34
2022-12-26T21:46:15.571Z,74961.31
2022-12-26T21:56:18.532Z,74969.41
2022-12-26T22:06:20.633Z,74973.44
2022-12-26T22:16:23.009Z,74981.53
2022-12-26T22:26:25.713Z,75001.78
2022-12-26T22:36:28.954Z,75017.97
2022-12-26T22:46:33.392Z,75044.28
2022-12-26T22:56:37.802Z,75038.19
2022-12-26T23:06:45.100Z,75052.38
2022-12-26T23:16:55.073Z,75076.66
2022-12-26T23:27:21.312Z,75076.66
2022-12-26T23:37:26.528Z,75058.44
2022-12-26T23:47:30.917Z,75042.25
2022-12-26T23:57:33.202Z,75026.06
